sensor_id;sensor_type;location;lat;lon;timestamp;P1;durP1;ratioP1;P2;durP2;ratioP2
79284;SDS011;68734;50.452;11.636;2023-06-10T00:00:44;22.58;;;12.75;;
79284;SDS011;68734;50.452;11.636;2023-06-10T00:03:10;13.88;;;9.77;;
79284;SDS011;68734;50.452;11.636;2023-06-10T00:05:36;15.68;;;11.23;;
79284;SDS011;68734;50.452;11.636;2023-06-10T00:08:05;15.48;;;11.20;;
79284;SDS011;68734;50.452;11.636;2023-06-10T00:10:37;13.35;;;10.55;;
79284;SDS011;68734;50.452;11.636;2023-06-10T00:13:06;15.73;;;10.98;;
79284;SDS011;68734;50.452;11.636;2023-06-10T00:15:36;18.48;;;10.45;;
79284;SDS011;68734;50.452;11.636;2023-06-10T00:18:02;13.95;;;10.77;;
79284;SDS011;68734;50.452;11.636;2023-06-10T00:20:28;13.98;;;9.95;;
79284;SDS011;68734;50.452;11.636;2023-06-10T00:22:55;15.35;;;10.27;;
79284;SDS011;68734;50.452;11.636;2023-06-10T00:25:22;14.15;;;10.23;;
79284;SDS011;68734;50.452;11.636;2023-06-10T00:27:50;14.63;;;10.43;;
79284;SDS011;68734;50.452;11.636;2023-06-10T00:30:15;17.35;;;10.15;;
79284;SDS011;68734;50.452;11.636;2023-06-10T00:32:41;15.10;;;10.93;;
79284;SDS011;68734;50.452;11.636;2023-06-10T00:35:06;13.65;;;10.05;;
79284;SDS011;68734;50.452;11.636;2023-06-10T00:37:32;17.45;;;10.93;;
79284;SDS011;68734;50.452;11.636;2023-06-10T00:39:59;16.90;;;10.25;;
79284;SDS011;68734;50.452;11.636;2023-06-10T00:42:25;15.80;;;10.45;;
79284;SDS011;68734;50.452;11.636;2023-06-10T00:44:50;15.15;;;10.52;;
79284;SDS011;68734;50.452;11.636;2023-06-10T00:47:16;16.13;;;11.68;;
79284;SDS011;68734;50.452;11.636;2023-06-10T00:49:42;14.23;;;10.98;;
79284;SDS011;68734;50.452;11.636;2023-06-10T00:52:09;20.48;;;11.75;;
79284;SDS011;68734;50.452;11.636;2023-06-10T00:54:35;16.10;;;11.02;;
79284;SDS011;68734;50.452;11.636;2023-06-10T00:57:04;15.40;;;11.93;;
79284;SDS011;68734;50.452;11.636;2023-06-10T00:59:30;14.20;;;11.38;;
79284;SDS011;68734;50.452;11.636;2023-06-10T01:01:59;16.38;;;11.05;;
79284;SDS011;68734;50.452;11.636;2023-06-10T01:04:25;18.30;;;10.70;;
79284;SDS011;68734;50.452;11.636;2023-06-10T01:06:54;18.60;;;11.55;;
79284;SDS011;68734;50.452;11.636;2023-06-10T01:14:34;15.30;;;12.15;;
79284;SDS011;68734;50.452;11.636;2023-06-10T01:17:04;18.73;;;11.73;;
79284;SDS011;68734;50.452;11.636;2023-06-10T01:19:30;19.83;;;11.20;;
79284;SDS011;68734;50.452;11.636;2023-06-10T01:21:56;17.13;;;11.18;;
79284;SDS011;68734;50.452;11.636;2023-06-10T01:24:26;14.30;;;10.23;;
79284;SDS011;68734;50.452;11.636;2023-06-10T01:26:52;18.58;;;12.85;;
79284;SDS011;68734;50.452;11.636;2023-06-10T01:29:22;18.15;;;11.73;;
79284;SDS011;68734;50.452;11.636;2023-06-10T01:32:00;16.25;;;11.57;;
79284;SDS011;68734;50.452;11.636;2023-06-10T01:34:31;15.93;;;11.02;;
79284;SDS011;68734;50.452;11.636;2023-06-10T01:36:58;17.35;;;11.95;;
79284;SDS011;68734;50.452;11.636;2023-06-10T01:39:24;17.60;;;12.15;;
79284;SDS011;68734;50.452;11.636;2023-06-10T01:41:50;16.98;;;11.13;;
79284;SDS011;68734;50.452;11.636;2023-06-10T01:44:21;17.20;;;11.93;;
79284;SDS011;68734;50.452;11.636;2023-06-10T01:46:48;20.30;;;12.18;;
79284;SDS011;68734;50.452;11.636;2023-06-10T01:49:13;16.85;;;11.60;;
79284;SDS011;68734;50.452;11.636;2023-06-10T01:51:39;24.98;;;11.77;;
79284;SDS011;68734;50.452;11.636;2023-06-10T01:54:05;18.48;;;12.60;;
79284;SDS011;68734;50.452;11.636;2023-06-10T01:56:33;18.85;;;12.02;;
79284;SDS011;68734;50.452;11.636;2023-06-10T01:58:58;18.45;;;10.93;;
79284;SDS011;68734;50.452;11.636;2023-06-10T02:01:25;16.02;;;11.98;;
79284;SDS011;68734;50.452;11.636;2023-06-10T02:03:51;18.55;;;12.73;;
79284;SDS011;68734;50.452;11.636;2023-06-10T02:06:16;16.30;;;11.50;;
79284;SDS011;68734;50.452;11.636;2023-06-10T02:08:42;17.60;;;10.95;;
79284;SDS011;68734;50.452;11.636;2023-06-10T02:11:07;20.20;;;12.77;;
79284;SDS011;68734;50.452;11.636;2023-06-10T02:13:33;17.52;;;12.23;;
79284;SDS011;68734;50.452;11.636;2023-06-10T02:15:58;13.75;;;10.98;;
79284;SDS011;68734;50.452;11.636;2023-06-10T02:18:24;17.95;;;11.68;;
79284;SDS011;68734;50.452;11.636;2023-06-10T02:20:52;22.38;;;11.85;;
79284;SDS011;68734;50.452;11.636;2023-06-10T02:23:17;18.48;;;11.38;;
79284;SDS011;68734;50.452;11.636;2023-06-10T02:25:43;19.83;;;11.55;;
79284;SDS011;68734;50.452;11.636;2023-06-10T02:28:08;16.33;;;12.50;;
79284;SDS011;68734;50.452;11.636;2023-06-10T02:30:34;16.67;;;11.30;;
79284;SDS011;68734;50.452;11.636;2023-06-10T02:32:59;18.08;;;12.45;;
79284;SDS011;68734;50.452;11.636;2023-06-10T02:35:26;15.93;;;11.13;;
79284;SDS011;68734;50.452;11.636;2023-06-10T02:37:51;14.20;;;10.52;;
79284;SDS011;68734;50.452;11.636;2023-06-10T02:40:17;17.27;;;10.75;;
79284;SDS011;68734;50.452;11.636;2023-06-10T02:42:42;14.82;;;10.90;;
79284;SDS011;68734;50.452;11.636;2023-06-10T02:45:07;16.25;;;11.32;;
79284;SDS011;68734;50.452;11.636;2023-06-10T02:47:37;15.35;;;10.32;;
79284;SDS011;68734;50.452;11.636;2023-06-10T02:50:02;16.02;;;12.35;;
79284;SDS011;68734;50.452;11.636;2023-06-10T02:52:28;19.05;;;12.57;;
79284;SDS011;68734;50.452;11.636;2023-06-10T02:54:55;19.35;;;12.00;;
79284;SDS011;68734;50.452;11.636;2023-06-10T02:57:22;17.48;;;12.10;;
79284;SDS011;68734;50.452;11.636;2023-06-10T02:59:48;17.13;;;11.07;;
79284;SDS011;68734;50.452;11.636;2023-06-10T03:02:13;15.45;;;10.95;;
79284;SDS011;68734;50.452;11.636;2023-06-10T03:04:39;16.15;;;11.27;;
79284;SDS011;68734;50.452;11.636;2023-06-10T03:07:06;20.88;;;11.68;;
79284;SDS011;68734;50.452;11.636;2023-06-10T03:09:32;17.50;;;11.23;;
79284;SDS011;68734;50.452;11.636;2023-06-10T03:11:58;20.48;;;12.50;;
79284;SDS011;68734;50.452;11.636;2023-06-10T03:14:24;19.65;;;11.13;;
79284;SDS011;68734;50.452;11.636;2023-06-10T03:16:50;16.95;;;11.77;;
79284;SDS011;68734;50.452;11.636;2023-06-10T03:19:16;16.25;;;10.65;;
79284;SDS011;68734;50.452;11.636;2023-06-10T03:21:43;15.73;;;10.93;;
79284;SDS011;68734;50.452;11.636;2023-06-10T03:24:12;19.70;;;10.65;;
79284;SDS011;68734;50.452;11.636;2023-06-10T03:26:40;16.13;;;12.35;;
79284;SDS011;68734;50.452;11.636;2023-06-10T03:29:07;18.67;;;10.85;;
79284;SDS011;68734;50.452;11.636;2023-06-10T03:31:33;11.82;;;9.77;;
79284;SDS011;68734;50.452;11.636;2023-06-10T03:34:01;16.17;;;10.93;;
79284;SDS011;68734;50.452;11.636;2023-06-10T03:36:27;21.13;;;11.05;;
79284;SDS011;68734;50.452;11.636;2023-06-10T03:38:55;17.35;;;10.30;;
79284;SDS011;68734;50.452;11.636;2023-06-10T03:41:25;16.02;;;10.88;;
79284;SDS011;68734;50.452;11.636;2023-06-10T03:43:53;15.48;;;10.15;;
79284;SDS011;68734;50.452;11.636;2023-06-10T03:46:21;16.75;;;10.55;;
79284;SDS011;68734;50.452;11.636;2023-06-10T03:48:46;13.68;;;10.23;;
79284;SDS011;68734;50.452;11.636;2023-06-10T03:51:14;13.93;;;9.65;;
79284;SDS011;68734;50.452;11.636;2023-06-10T03:53:40;15.30;;;10.30;;
79284;SDS011;68734;50.452;11.636;2023-06-10T03:56:07;16.63;;;10.13;;
79284;SDS011;68734;50.452;11.636;2023-06-10T03:58:33;18.63;;;10.52;;
79284;SDS011;68734;50.452;11.636;2023-06-10T04:00:58;13.98;;;10.50;;
79284;SDS011;68734;50.452;11.636;2023-06-10T04:03:24;16.02;;;10.15;;
79284;SDS011;68734;50.452;11.636;2023-06-10T04:05:49;16.52;;;10.65;;
79284;SDS011;68734;50.452;11.636;2023-06-10T04:08:15;16.65;;;10.45;;
79284;SDS011;68734;50.452;11.636;2023-06-10T04:10:41;16.15;;;10.40;;
79284;SDS011;68734;50.452;11.636;2023-06-10T04:13:06;14.90;;;10.30;;
79284;SDS011;68734;50.452;11.636;2023-06-10T04:15:31;13.10;;;10.05;;
79284;SDS011;68734;50.452;11.636;2023-06-10T04:17:58;13.32;;;9.80;;
79284;SDS011;68734;50.452;11.636;2023-06-10T04:20:25;15.25;;;10.65;;
79284;SDS011;68734;50.452;11.636;2023-06-10T04:22:53;16.23;;;11.10;;
79284;SDS011;68734;50.452;11.636;2023-06-10T04:25:18;15.13;;;9.57;;
79284;SDS011;68734;50.452;11.636;2023-06-10T04:27:46;16.48;;;10.25;;
79284;SDS011;68734;50.452;11.636;2023-06-10T04:30:12;14.20;;;9.30;;
79284;SDS011;68734;50.452;11.636;2023-06-10T04:32:38;15.65;;;9.52;;
79284;SDS011;68734;50.452;11.636;2023-06-10T04:35:04;18.00;;;9.40;;
79284;SDS011;68734;50.452;11.636;2023-06-10T04:37:30;13.80;;;9.07;;
79284;SDS011;68734;50.452;11.636;2023-06-10T04:39:55;14.25;;;9.18;;
79284;SDS011;68734;50.452;11.636;2023-06-10T04:42:22;16.13;;;9.88;;
79284;SDS011;68734;50.452;11.636;2023-06-10T04:44:47;19.38;;;9.20;;
79284;SDS011;68734;50.452;11.636;2023-06-10T04:47:15;14.00;;;8.32;;
79284;SDS011;68734;50.452;11.636;2023-06-10T04:49:42;14.77;;;9.13;;
79284;SDS011;68734;50.452;11.636;2023-06-10T04:52:07;11.50;;;8.65;;
79284;SDS011;68734;50.452;11.636;2023-06-10T04:54:33;15.75;;;9.27;;
79284;SDS011;68734;50.452;11.636;2023-06-10T04:56:58;16.02;;;9.35;;
79284;SDS011;68734;50.452;11.636;2023-06-10T04:59:25;15.63;;;9.90;;
79284;SDS011;68734;50.452;11.636;2023-06-10T05:01:52;12.65;;;9.30;;
79284;SDS011;68734;50.452;11.636;2023-06-10T05:04:24;13.52;;;8.60;;
79284;SDS011;68734;50.452;11.636;2023-06-10T05:06:50;15.25;;;9.57;;
79284;SDS011;68734;50.452;11.636;2023-06-10T05:09:15;16.20;;;8.80;;
79284;SDS011;68734;50.452;11.636;2023-06-10T05:11:43;14.23;;;8.70;;
79284;SDS011;68734;50.452;11.636;2023-06-10T05:14:09;17.65;;;8.73;;
79284;SDS011;68734;50.452;11.636;2023-06-10T05:16:35;18.67;;;10.23;;
79284;SDS011;68734;50.452;11.636;2023-06-10T05:19:03;15.52;;;9.77;;
79284;SDS011;68734;50.452;11.636;2023-06-10T05:21:29;20.48;;;9.43;;
79284;SDS011;68734;50.452;11.636;2023-06-10T05:23:54;17.45;;;9.73;;
79284;SDS011;68734;50.452;11.636;2023-06-10T05:26:20;15.75;;;9.02;;
79284;SDS011;68734;50.452;11.636;2023-06-10T05:28:46;15.02;;;9.68;;
79284;SDS011;68734;50.452;11.636;2023-06-10T05:31:14;14.43;;;9.10;;
79284;SDS011;68734;50.452;11.636;2023-06-10T05:33:40;15.07;;;10.40;;
79284;SDS011;68734;50.452;11.636;2023-06-10T05:36:08;17.88;;;10.80;;
79284;SDS011;68734;50.452;11.636;2023-06-10T05:38:33;17.08;;;10.30;;
79284;SDS011;68734;50.452;11.636;2023-06-10T05:40:59;14.88;;;9.82;;
79284;SDS011;68734;50.452;11.636;2023-06-10T05:43:24;16.35;;;10.10;;
79284;SDS011;68734;50.452;11.636;2023-06-10T05:45:50;18.25;;;9.98;;
79284;SDS011;68734;50.452;11.636;2023-06-10T05:48:15;19.33;;;10.18;;
79284;SDS011;68734;50.452;11.636;2023-06-10T05:50:41;16.98;;;9.93;;
79284;SDS011;68734;50.452;11.636;2023-06-10T05:53:13;14.13;;;9.27;;
79284;SDS011;68734;50.452;11.636;2023-06-10T05:55:41;17.60;;;11.70;;
79284;SDS011;68734;50.452;11.636;2023-06-10T05:58:08;14.60;;;10.23;;
79284;SDS011;68734;50.452;11.636;2023-06-10T06:00:37;16.02;;;9.85;;
79284;SDS011;68734;50.452;11.636;2023-06-10T06:03:05;15.45;;;10.13;;
79284;SDS011;68734;50.452;11.636;2023-06-10T06:05:32;15.68;;;10.23;;
79284;SDS011;68734;50.452;11.636;2023-06-10T06:08:00;17.13;;;11.45;;
79284;SDS011;68734;50.452;11.636;2023-06-10T06:10:32;14.48;;;10.55;;
79284;SDS011;68734;50.452;11.636;2023-06-10T06:12:58;18.42;;;11.00;;
79284;SDS011;68734;50.452;11.636;2023-06-10T06:15:23;16.15;;;10.70;;
79284;SDS011;68734;50.452;11.636;2023-06-10T06:17:49;23.83;;;11.93;;
79284;SDS011;68734;50.452;11.636;2023-06-10T06:20:17;15.95;;;10.32;;
79284;SDS011;68734;50.452;11.636;2023-06-10T06:22:46;18.55;;;10.07;;
79284;SDS011;68734;50.452;11.636;2023-06-10T06:25:11;16.50;;;9.93;;
79284;SDS011;68734;50.452;11.636;2023-06-10T06:27:39;17.17;;;10.45;;
79284;SDS011;68734;50.452;11.636;2023-06-10T06:30:05;16.65;;;9.73;;
79284;SDS011;68734;50.452;11.636;2023-06-10T06:32:31;16.95;;;9.90;;
79284;SDS011;68734;50.452;11.636;2023-06-10T06:34:56;17.10;;;11.88;;
79284;SDS011;68734;50.452;11.636;2023-06-10T06:37:22;15.45;;;9.68;;
79284;SDS011;68734;50.452;11.636;2023-06-10T06:39:50;18.10;;;10.35;;
79284;SDS011;68734;50.452;11.636;2023-06-10T06:42:16;13.13;;;10.10;;
79284;SDS011;68734;50.452;11.636;2023-06-10T06:44:41;13.80;;;9.30;;
79284;SDS011;68734;50.452;11.636;2023-06-10T06:47:07;14.57;;;9.98;;
79284;SDS011;68734;50.452;11.636;2023-06-10T06:49:35;15.30;;;10.15;;
79284;SDS011;68734;50.452;11.636;2023-06-10T06:52:00;18.60;;;11.05;;
79284;SDS011;68734;50.452;11.636;2023-06-10T06:54:26;18.95;;;10.57;;
79284;SDS011;68734;50.452;11.636;2023-06-10T06:56:54;15.85;;;10.95;;
79284;SDS011;68734;50.452;11.636;2023-06-10T06:59:19;15.77;;;11.40;;
79284;SDS011;68734;50.452;11.636;2023-06-10T07:01:45;15.93;;;10.57;;
79284;SDS011;68734;50.452;11.636;2023-06-10T07:04:11;13.38;;;9.48;;
79284;SDS011;68734;50.452;11.636;2023-06-10T07:06:37;15.05;;;10.48;;
79284;SDS011;68734;50.452;11.636;2023-06-10T07:09:03;14.85;;;10.73;;
79284;SDS011;68734;50.452;11.636;2023-06-10T07:11:29;16.30;;;10.60;;
79284;SDS011;68734;50.452;11.636;2023-06-10T07:13:57;15.13;;;10.25;;
79284;SDS011;68734;50.452;11.636;2023-06-10T07:16:25;15.48;;;10.70;;
79284;SDS011;68734;50.452;11.636;2023-06-10T07:18:55;13.82;;;9.38;;
79284;SDS011;68734;50.452;11.636;2023-06-10T07:21:21;15.07;;;10.50;;
79284;SDS011;68734;50.452;11.636;2023-06-10T07:23:48;18.42;;;9.57;;
79284;SDS011;68734;50.452;11.636;2023-06-10T07:26:14;16.08;;;9.60;;
79284;SDS011;68734;50.452;11.636;2023-06-10T07:28:42;17.67;;;11.15;;
79284;SDS011;68734;50.452;11.636;2023-06-10T07:31:08;13.45;;;10.43;;
79284;SDS011;68734;50.452;11.636;2023-06-10T07:33:34;15.63;;;9.70;;
79284;SDS011;68734;50.452;11.636;2023-06-10T07:35:59;15.60;;;10.10;;
79284;SDS011;68734;50.452;11.636;2023-06-10T07:38:27;13.13;;;9.18;;
79284;SDS011;68734;50.452;11.636;2023-06-10T07:40:52;16.65;;;9.10;;
79284;SDS011;68734;50.452;11.636;2023-06-10T07:43:18;13.73;;;9.82;;
79284;SDS011;68734;50.452;11.636;2023-06-10T07:45:44;18.70;;;12.52;;
79284;SDS011;68734;50.452;11.636;2023-06-10T07:48:10;15.38;;;10.32;;
79284;SDS011;68734;50.452;11.636;2023-06-10T07:50:36;12.98;;;9.48;;
79284;SDS011;68734;50.452;11.636;2023-06-10T07:53:01;16.15;;;8.82;;
79284;SDS011;68734;50.452;11.636;2023-06-10T07:55:27;17.25;;;9.60;;
79284;SDS011;68734;50.452;11.636;2023-06-10T07:57:52;14.57;;;9.50;;
79284;SDS011;68734;50.452;11.636;2023-06-10T08:00:19;14.27;;;9.20;;
79284;SDS011;68734;50.452;11.636;2023-06-10T08:02:45;15.52;;;10.02;;
79284;SDS011;68734;50.452;11.636;2023-06-10T08:05:10;19.50;;;10.40;;
79284;SDS011;68734;50.452;11.636;2023-06-10T08:07:36;15.32;;;9.07;;
79284;SDS011;68734;50.452;11.636;2023-06-10T08:10:02;15.52;;;9.60;;
79284;SDS011;68734;50.452;11.636;2023-06-10T08:12:29;12.82;;;9.15;;
79284;SDS011;68734;50.452;11.636;2023-06-10T08:14:54;12.32;;;7.63;;
79284;SDS011;68734;50.452;11.636;2023-06-10T08:17:20;12.93;;;7.82;;
79284;SDS011;68734;50.452;11.636;2023-06-10T08:19:45;14.35;;;8.90;;
79284;SDS011;68734;50.452;11.636;2023-06-10T08:22:11;12.07;;;8.43;;
79284;SDS011;68734;50.452;11.636;2023-06-10T08:24:36;11.85;;;8.38;;
79284;SDS011;68734;50.452;11.636;2023-06-10T08:27:02;13.45;;;8.15;;
79284;SDS011;68734;50.452;11.636;2023-06-10T08:29:27;11.95;;;8.43;;
79284;SDS011;68734;50.452;11.636;2023-06-10T08:31:55;13.23;;;8.13;;
79284;SDS011;68734;50.452;11.636;2023-06-10T08:34:20;15.88;;;8.15;;
79284;SDS011;68734;50.452;11.636;2023-06-10T08:36:48;13.55;;;8.05;;
79284;SDS011;68734;50.452;11.636;2023-06-10T08:39:18;16.08;;;7.53;;
79284;SDS011;68734;50.452;11.636;2023-06-10T08:41:49;13.90;;;7.88;;
79284;SDS011;68734;50.452;11.636;2023-06-10T08:44:30;12.25;;;7.70;;
79284;SDS011;68734;50.452;11.636;2023-06-10T08:46:58;15.45;;;8.35;;
79284;SDS011;68734;50.452;11.636;2023-06-10T08:49:25;11.38;;;8.32;;
79284;SDS011;68734;50.452;11.636;2023-06-10T08:51:55;10.57;;;7.72;;
79284;SDS011;68734;50.452;11.636;2023-06-10T08:54:25;13.63;;;8.45;;
79284;SDS011;68734;50.452;11.636;2023-06-10T08:57:03;11.43;;;8.02;;
79284;SDS011;68734;50.452;11.636;2023-06-10T08:59:36;14.80;;;8.18;;
79284;SDS011;68734;50.452;11.636;2023-06-10T09:02:03;8.85;;;6.43;;
79284;SDS011;68734;50.452;11.636;2023-06-10T09:04:29;10.25;;;6.50;;
79284;SDS011;68734;50.452;11.636;2023-06-10T09:06:55;8.35;;;6.75;;
79284;SDS011;68734;50.452;11.636;2023-06-10T09:09:24;10.95;;;7.22;;
79284;SDS011;68734;50.452;11.636;2023-06-10T09:11:53;12.80;;;7.50;;
79284;SDS011;68734;50.452;11.636;2023-06-10T09:14:21;13.13;;;7.53;;
79284;SDS011;68734;50.452;11.636;2023-06-10T09:16:46;10.80;;;6.72;;
79284;SDS011;68734;50.452;11.636;2023-06-10T09:19:13;13.02;;;7.18;;
79284;SDS011;68734;50.452;11.636;2023-06-10T09:21:41;11.48;;;7.68;;
79284;SDS011;68734;50.452;11.636;2023-06-10T09:24:06;11.15;;;7.32;;
79284;SDS011;68734;50.452;11.636;2023-06-10T09:26:32;18.55;;;8.20;;
79284;SDS011;68734;50.452;11.636;2023-06-10T09:29:02;10.50;;;7.97;;
79284;SDS011;68734;50.452;11.636;2023-06-10T09:31:36;10.23;;;6.85;;
79284;SDS011;68734;50.452;11.636;2023-06-10T09:36:39;12.38;;;7.20;;
79284;SDS011;68734;50.452;11.636;2023-06-10T09:39:05;11.98;;;6.43;;
79284;SDS011;68734;50.452;11.636;2023-06-10T09:41:40;13.77;;;7.80;;
79284;SDS011;68734;50.452;11.636;2023-06-10T09:44:11;11.57;;;7.72;;
79284;SDS011;68734;50.452;11.636;2023-06-10T09:46:40;10.60;;;6.22;;
79284;SDS011;68734;50.452;11.636;2023-06-10T09:49:07;8.52;;;6.28;;
79284;SDS011;68734;50.452;11.636;2023-06-10T09:51:35;10.57;;;7.05;;
79284;SDS011;68734;50.452;11.636;2023-06-10T09:54:02;13.25;;;7.32;;
79284;SDS011;68734;50.452;11.636;2023-06-10T09:56:35;9.82;;;7.28;;
79284;SDS011;68734;50.452;11.636;2023-06-10T09:59:02;15.10;;;8.52;;
79284;SDS011;68734;50.452;11.636;2023-06-10T10:01:31;12.68;;;8.48;;
79284;SDS011;68734;50.452;11.636;2023-06-10T10:03:58;11.93;;;7.88;;
79284;SDS011;68734;50.452;11.636;2023-06-10T10:06:24;16.02;;;9.05;;
79284;SDS011;68734;50.452;11.636;2023-06-10T10:08:50;18.45;;;9.38;;
79284;SDS011;68734;50.452;11.636;2023-06-10T10:11:17;11.23;;;8.32;;
79284;SDS011;68734;50.452;11.636;2023-06-10T10:13:45;12.95;;;8.45;;
79284;SDS011;68734;50.452;11.636;2023-06-10T10:16:17;14.82;;;8.95;;
79284;SDS011;68734;50.452;11.636;2023-06-10T10:18:51;13.05;;;8.95;;
79284;SDS011;68734;50.452;11.636;2023-06-10T10:21:24;12.00;;;8.88;;
79284;SDS011;68734;50.452;11.636;2023-06-10T10:26:25;13.82;;;9.18;;
79284;SDS011;68734;50.452;11.636;2023-06-10T10:28:55;10.68;;;8.38;;
79284;SDS011;68734;50.452;11.636;2023-06-10T10:31:41;14.07;;;9.35;;
79284;SDS011;68734;50.452;11.636;2023-06-10T10:34:09;16.55;;;10.10;;
79284;SDS011;68734;50.452;11.636;2023-06-10T10:36:43;15.80;;;8.93;;
79284;SDS011;68734;50.452;11.636;2023-06-10T10:39:13;12.55;;;9.45;;
79284;SDS011;68734;50.452;11.636;2023-06-10T10:41:39;16.55;;;8.70;;
79284;SDS011;68734;50.452;11.636;2023-06-10T10:44:06;12.50;;;8.73;;
79284;SDS011;68734;50.452;11.636;2023-06-10T10:46:41;13.75;;;8.95;;
79284;SDS011;68734;50.452;11.636;2023-06-10T10:49:19;14.13;;;10.43;;
79284;SDS011;68734;50.452;11.636;2023-06-10T10:52:00;15.15;;;10.20;;
79284;SDS011;68734;50.452;11.636;2023-06-10T10:54:33;13.40;;;10.57;;
79284;SDS011;68734;50.452;11.636;2023-06-10T10:59:43;16.40;;;10.48;;
79284;SDS011;68734;50.452;11.636;2023-06-10T11:02:18;19.10;;;11.98;;
79284;SDS011;68734;50.452;11.636;2023-06-10T11:04:57;14.40;;;10.20;;
79284;SDS011;68734;50.452;11.636;2023-06-10T11:07:24;16.95;;;11.15;;
79284;SDS011;68734;50.452;11.636;2023-06-10T11:10:00;20.20;;;11.63;;
79284;SDS011;68734;50.452;11.636;2023-06-10T11:15:10;17.17;;;12.38;;
79284;SDS011;68734;50.452;11.636;2023-06-10T11:17:36;14.40;;;11.38;;
79284;SDS011;68734;50.452;11.636;2023-06-10T11:20:01;14.80;;;11.25;;
79284;SDS011;68734;50.452;11.636;2023-06-10T11:22:27;13.02;;;10.30;;
79284;SDS011;68734;50.452;11.636;2023-06-10T11:24:53;15.32;;;11.85;;
79284;SDS011;68734;50.452;11.636;2023-06-10T11:27:26;14.40;;;10.98;;
79284;SDS011;68734;50.452;11.636;2023-06-10T11:32:29;17.45;;;11.13;;
79284;SDS011;68734;50.452;11.636;2023-06-10T11:34:56;16.60;;;11.55;;
79284;SDS011;68734;50.452;11.636;2023-06-10T11:37:22;14.23;;;10.00;;
79284;SDS011;68734;50.452;11.636;2023-06-10T11:39:51;16.30;;;11.70;;
79284;SDS011;68734;50.452;11.636;2023-06-10T11:42:20;15.90;;;10.98;;
79284;SDS011;68734;50.452;11.636;2023-06-10T11:44:48;22.33;;;12.73;;
79284;SDS011;68734;50.452;11.636;2023-06-10T11:47:14;18.10;;;12.00;;
79284;SDS011;68734;50.452;11.636;2023-06-10T11:49:45;16.30;;;11.85;;
79284;SDS011;68734;50.452;11.636;2023-06-10T11:52:26;18.83;;;11.30;;
79284;SDS011;68734;50.452;11.636;2023-06-10T11:54:54;17.88;;;11.10;;
79284;SDS011;68734;50.452;11.636;2023-06-10T11:57:20;16.08;;;10.45;;
79284;SDS011;68734;50.452;11.636;2023-06-10T11:59:46;15.73;;;9.30;;
79284;SDS011;68734;50.452;11.636;2023-06-10T12:02:15;15.65;;;10.00;;
79284;SDS011;68734;50.452;11.636;2023-06-10T12:04:41;15.77;;;9.98;;
79284;SDS011;68734;50.452;11.636;2023-06-10T12:07:06;16.02;;;9.38;;
79284;SDS011;68734;50.452;11.636;2023-06-10T12:09:41;13.05;;;9.88;;
79284;SDS011;68734;50.452;11.636;2023-06-10T12:12:07;14.68;;;9.55;;
79284;SDS011;68734;50.452;11.636;2023-06-10T12:19:58;14.48;;;8.75;;
79284;SDS011;68734;50.452;11.636;2023-06-10T12:22:26;14.00;;;8.90;;
79284;SDS011;68734;50.452;11.636;2023-06-10T12:25:01;15.18;;;8.80;;
79284;SDS011;68734;50.452;11.636;2023-06-10T12:27:31;11.43;;;8.20;;
79284;SDS011;68734;50.452;11.636;2023-06-10T12:32:35;11.85;;;7.60;;
79284;SDS011;68734;50.452;11.636;2023-06-10T12:35:02;9.77;;;7.53;;
79284;SDS011;68734;50.452;11.636;2023-06-10T12:37:31;13.52;;;8.88;;
79284;SDS011;68734;50.452;11.636;2023-06-10T12:40:01;13.82;;;8.77;;
79284;SDS011;68734;50.452;11.636;2023-06-10T12:42:28;14.27;;;8.73;;
79284;SDS011;68734;50.452;11.636;2023-06-10T12:45:00;17.02;;;8.90;;
79284;SDS011;68734;50.452;11.636;2023-06-10T12:47:32;13.75;;;8.00;;
79284;SDS011;68734;50.452;11.636;2023-06-10T12:50:03;13.75;;;8.50;;
79284;SDS011;68734;50.452;11.636;2023-06-10T12:52:31;12.63;;;8.82;;
79284;SDS011;68734;50.452;11.636;2023-06-10T12:54:57;13.63;;;8.32;;
79284;SDS011;68734;50.452;11.636;2023-06-10T12:57:23;13.00;;;8.95;;
79284;SDS011;68734;50.452;11.636;2023-06-10T12:59:49;16.42;;;9.00;;
79284;SDS011;68734;50.452;11.636;2023-06-10T13:02:17;15.52;;;9.98;;
79284;SDS011;68734;50.452;11.636;2023-06-10T13:04:44;15.20;;;8.90;;
79284;SDS011;68734;50.452;11.636;2023-06-10T13:07:10;11.60;;;8.38;;
79284;SDS011;68734;50.452;11.636;2023-06-10T13:09:36;10.40;;;8.27;;
79284;SDS011;68734;50.452;11.636;2023-06-10T13:12:04;13.18;;;8.07;;
79284;SDS011;68734;50.452;11.636;2023-06-10T13:14:30;13.52;;;8.73;;
79284;SDS011;68734;50.452;11.636;2023-06-10T13:16:56;12.00;;;8.50;;
79284;SDS011;68734;50.452;11.636;2023-06-10T13:19:21;14.77;;;9.52;;
79284;SDS011;68734;50.452;11.636;2023-06-10T13:21:47;13.23;;;8.63;;
79284;SDS011;68734;50.452;11.636;2023-06-10T13:24:13;11.68;;;7.75;;
79284;SDS011;68734;50.452;11.636;2023-06-10T13:26:38;12.35;;;8.48;;
79284;SDS011;68734;50.452;11.636;2023-06-10T13:29:09;12.38;;;8.10;;
79284;SDS011;68734;50.452;11.636;2023-06-10T13:31:39;10.82;;;7.75;;
79284;SDS011;68734;50.452;11.636;2023-06-10T13:34:05;14.30;;;8.27;;
79284;SDS011;68734;50.452;11.636;2023-06-10T13:36:31;11.35;;;8.60;;
79284;SDS011;68734;50.452;11.636;2023-06-10T13:38:58;13.57;;;8.88;;
79284;SDS011;68734;50.452;11.636;2023-06-10T13:41:24;11.07;;;8.07;;
79284;SDS011;68734;50.452;11.636;2023-06-10T13:43:52;13.98;;;8.45;;
79284;SDS011;68734;50.452;11.636;2023-06-10T13:46:17;12.48;;;7.80;;
79284;SDS011;68734;50.452;11.636;2023-06-10T13:48:45;12.43;;;8.02;;
79284;SDS011;68734;50.452;11.636;2023-06-10T13:51:13;15.85;;;9.05;;
79284;SDS011;68734;50.452;11.636;2023-06-10T13:53:39;15.13;;;8.75;;
79284;SDS011;68734;50.452;11.636;2023-06-10T13:56:04;15.43;;;7.75;;
79284;SDS011;68734;50.452;11.636;2023-06-10T13:58:30;11.38;;;7.93;;
79284;SDS011;68734;50.452;11.636;2023-06-10T14:00:55;52.38;;;15.02;;
79284;SDS011;68734;50.452;11.636;2023-06-10T14:03:21;14.88;;;7.95;;
79284;SDS011;68734;50.452;11.636;2023-06-10T14:05:46;15.15;;;9.65;;
79284;SDS011;68734;50.452;11.636;2023-06-10T14:08:12;13.32;;;8.63;;
79284;SDS011;68734;50.452;11.636;2023-06-10T14:10:38;12.50;;;8.00;;
79284;SDS011;68734;50.452;11.636;2023-06-10T14:13:03;11.13;;;7.75;;
79284;SDS011;68734;50.452;11.636;2023-06-10T14:15:32;13.80;;;8.50;;
79284;SDS011;68734;50.452;11.636;2023-06-10T14:17:58;14.52;;;8.73;;
79284;SDS011;68734;50.452;11.636;2023-06-10T14:20:23;11.07;;;7.82;;
79284;SDS011;68734;50.452;11.636;2023-06-10T14:22:50;13.10;;;8.60;;
79284;SDS011;68734;50.452;11.636;2023-06-10T14:25:16;11.55;;;8.88;;
79284;SDS011;68734;50.452;11.636;2023-06-10T14:27:42;13.80;;;9.02;;
79284;SDS011;68734;50.452;11.636;2023-06-10T14:30:08;18.23;;;10.18;;
79284;SDS011;68734;50.452;11.636;2023-06-10T14:32:36;15.10;;;9.27;;
79284;SDS011;68734;50.452;11.636;2023-06-10T14:35:04;17.05;;;8.57;;
79284;SDS011;68734;50.452;11.636;2023-06-10T14:37:30;10.40;;;7.90;;
79284;SDS011;68734;50.452;11.636;2023-06-10T14:39:55;11.48;;;8.80;;
79284;SDS011;68734;50.452;11.636;2023-06-10T14:42:21;12.95;;;9.68;;